Time;durP1;ratioP1;P1;durP2;ratioP2;P2;SDS_P1;SDS_P2;PMS_P1;PMS_P2;Temp;Humidity;BMP_temperature;BMP_pressure;BME280_temperature;BME280_humidity;BME280_pressure;Samples;Min_cycle;Max_cycle;Signal;HPM_P1;HPM_P2
2023/07/05 00:01:40;;;;;;;10.00;6.65;;;18.90;99.90;;;;;;4977817;28;20065;-73
2023/07/05 00:04:06;;;;;;;9.52;6.38;;;18.90;99.90;;;;;;4977510;28;20026;-74
2023/07/05 00:06:32;;;;;;;9.80;6.38;;;18.80;99.90;;;;;;4977820;28;20034;-73
2023/07/05 00:08:58;;;;;;;9.55;6.35;;;18.80;99.90;;;;;;4977948;28;20500;-74
2023/07/05 00:11:23;;;;;;;10.57;6.15;;;18.80;99.90;;;;;;4977454;28;20041;-74
2023/07/05 00:13:49;;;;;;;12.95;7.07;;;18.70;99.90;;;;;;4977621;28;20018;-73
2023/07/05 00:16:15;;;;;;;11.05;6.25;;;18.70;99.90;;;;;;4977636;28;20019;-73
2023/07/05 00:18:41;;;;;;;13.30;5.82;;;18.70;99.90;;;;;;4977577;28;20027;-73
2023/07/05 00:21:08;;;;;;;11.25;6.75;;;18.60;99.90;;;;;;4977510;28;20050;-73
2023/07/05 00:23:35;;;;;;;9.65;6.45;;;18.60;99.90;;;;;;4977578;28;20518;-73
2023/07/05 00:26:06;;;;;;;9.88;6.57;;;18.50;99.90;;;;;;4977548;28;20023;-74
2023/07/05 00:28:35;;;;;;;10.23;6.82;;;18.50;99.90;;;;;;4977588;28;20391;-74
2023/07/05 00:31:02;;;;;;;8.00;6.75;;;18.40;99.90;;;;;;4977563;28;20030;-74
2023/07/05 00:33:27;;;;;;;9.27;6.20;;;18.40;99.90;;;;;;4977351;28;20472;-74
2023/07/05 00:35:54;;;;;;;10.30;6.75;;;18.30;99.90;;;;;;4977694;28;20106;-74
2023/07/05 00:38:21;;;;;;;11.75;6.78;;;18.30;99.90;;;;;;4977922;28;20042;-74
2023/07/05 00:40:48;;;;;;;8.32;6.10;;;18.20;99.90;;;;;;4979884;28;20034;-74
2023/07/05 00:43:15;;;;;;;10.82;6.53;;;18.20;99.90;;;;;;4980898;28;20019;-74
2023/07/05 00:45:59;;;;;;;9.73;6.47;;;18.10;99.90;;;;;;4981210;28;20109;-73
2023/07/05 00:48:35;;;;;;;8.23;6.72;;;18.10;99.90;;;;;;4970215;28;20082;-73
2023/07/05 00:51:17;;;;;;;7.25;5.90;;;18.10;99.90;;;;;;4980824;28;20054;-74
2023/07/05 00:53:43;;;;;;;10.23;6.00;;;18.10;99.90;;;;;;4981055;28;20069;-74
2023/07/05 00:56:21;;;;;;;10.05;6.55;;;18.00;99.90;;;;;;4980689;28;20011;-74
2023/07/05 00:58:47;;;;;;;11.20;6.78;;;17.90;99.90;;;;;;4977214;28;20026;-74
2023/07/05 01:01:13;;;;;;;15.35;7.07;;;17.80;99.90;;;;;;4979355;28;20022;-73
2023/07/05 01:03:40;;;;;;;10.45;6.60;;;17.80;99.90;;;;;;4980401;28;20050;-74
2023/07/05 01:06:07;;;;;;;9.95;6.75;;;17.80;99.90;;;;;;4980687;28;20026;-74
2023/07/05 01:08:33;;;;;;;10.48;7.53;;;17.70;99.90;;;;;;4980492;28;20073;-74
2023/07/05 01:11:10;;;;;;;13.90;7.00;;;17.70;99.90;;;;;;4980436;28;20022;-74
2023/07/05 01:13:52;;;;;;;7.80;5.90;;;17.50;99.90;;;;;;4979062;28;20031;-74
2023/07/05 01:16:42;;;;;;;8.98;6.47;;;17.50;99.90;;;;;;4980794;28;20046;-73
2023/07/05 01:19:13;;;;;;;11.00;7.47;;;17.40;99.90;;;;;;4980110;28;20026;-73
2023/07/05 01:21:43;;;;;;;8.73;6.00;;;17.40;99.90;;;;;;4980297;28;20066;-74
2023/07/05 01:24:24;;;;;;;8.80;6.47;;;17.40;99.90;;;;;;4970790;28;20026;-74
2023/07/05 01:27:09;;;;;;;10.73;7.03;;;17.40;99.90;;;;;;5011393;28;20027;-73
2023/07/05 01:29:50;;;;;;;11.20;6.38;;;17.40;99.90;;;;;;4978989;28;20038;-73
2023/07/05 01:32:39;;;;;;;13.57;6.00;;;17.40;99.90;;;;;;4970835;28;20105;-73
2023/07/05 01:35:21;;;;;;;9.27;7.40;;;17.50;99.90;;;;;;5011172;28;20118;-73
2023/07/05 01:37:47;;;;;;;11.43;6.55;;;17.60;99.90;;;;;;5011479;28;20026;-73
2023/07/05 01:40:25;;;;;;;12.15;6.68;;;17.60;99.90;;;;;;4980067;28;20023;-73
2023/07/05 01:43:11;;;;;;;10.13;6.35;;;17.70;99.90;;;;;;4980021;28;20054;-74
2023/07/05 01:45:46;;;;;;;9.63;6.05;;;17.70;99.90;;;;;;4980210;28;20139;-73
2023/07/05 01:48:34;;;;;;;12.85;6.50;;;17.70;99.90;;;;;;4979801;28;20510;-73
2023/07/05 01:51:10;;;;;;;11.65;6.18;;;17.80;99.90;;;;;;4979157;28;20121;-73
2023/07/05 01:53:56;;;;;;;9.95;6.38;;;17.80;99.90;;;;;;4980034;28;20082;-73
2023/07/05 01:56:28;;;;;;;8.30;6.03;;;17.80;99.90;;;;;;4977089;28;20038;-73
2023/07/05 01:58:58;;;;;;;9.57;6.00;;;17.80;99.90;;;;;;4977739;28;20027;-73
2023/07/05 02:01:25;;;;;;;9.15;5.97;;;17.80;99.90;;;;;;4979844;28;20058;-73
2023/07/05 02:03:52;;;;;;;8.43;6.32;;;17.80;99.90;;;;;;4979300;28;20403;-73
2023/07/05 02:06:19;;;;;;;10.23;6.18;;;17.80;99.90;;;;;;4979870;28;20021;-73
2023/07/05 02:08:49;;;;;;;11.15;6.05;;;17.70;99.90;;;;;;4979374;28;20034;-73
2023/07/05 02:11:15;;;;;;;9.25;6.50;;;17.70;99.90;;;;;;4979606;28;20070;-73
2023/07/05 02:13:41;;;;;;;12.30;6.55;;;17.70;99.90;;;;;;4979117;28;20495;-74
2023/07/05 02:16:07;;;;;;;8.70;6.63;;;17.60;99.90;;;;;;4979594;28;20015;-73
2023/07/05 02:18:33;;;;;;;8.57;6.32;;;17.60;99.90;;;;;;4978997;28;20399;-74
2023/07/05 02:20:58;;;;;;;8.70;6.03;;;17.50;99.90;;;;;;5010614;28;20039;-74
2023/07/05 02:23:24;;;;;;;9.57;6.75;;;17.50;99.90;;;;;;4979227;28;20498;-74
2023/07/05 02:25:53;;;;;;;10.73;6.10;;;17.40;99.90;;;;;;5010754;28;20034;-74
2023/07/05 02:28:19;;;;;;;14.85;7.07;;;17.40;99.90;;;;;;4979078;28;20027;-74
2023/07/05 02:30:45;;;;;;;10.43;6.20;;;17.40;99.90;;;;;;4979328;28;20034;-74
2023/07/05 02:33:10;;;;;;;8.90;6.65;;;17.40;99.90;;;;;;4978774;28;20031;-74
2023/07/05 02:35:38;;;;;;;11.63;6.13;;;17.30;99.90;;;;;;4979171;28;20031;-74
2023/07/05 02:38:04;;;;;;;8.57;6.60;;;17.30;99.90;;;;;;4979041;28;20023;-73
2023/07/05 02:40:30;;;;;;;11.68;6.45;;;17.30;99.90;;;;;;4978992;28;20764;-73
2023/07/05 02:42:57;;;;;;;8.82;6.88;;;17.30;99.90;;;;;;4978770;28;20031;-73
2023/07/05 02:45:23;;;;;;;10.23;7.38;;;17.30;99.90;;;;;;4978956;28;20019;-74
2023/07/05 02:47:49;;;;;;;11.73;7.47;;;17.20;99.90;;;;;;5009868;28;20111;-74
2023/07/05 02:50:17;;;;;;;9.73;7.28;;;17.20;99.90;;;;;;4978762;28;20023;-74
2023/07/05 02:52:43;;;;;;;11.60;7.18;;;17.20;99.90;;;;;;5009834;28;20038;-74
2023/07/05 02:55:10;;;;;;;8.88;6.68;;;17.10;99.90;;;;;;4978736;28;20019;-74
2023/07/05 02:57:35;;;;;;;14.70;6.20;;;17.10;99.90;;;;;;4975548;28;20027;-74
2023/07/05 03:00:02;;;;;;;12.90;6.90;;;17.10;99.90;;;;;;4978789;28;20034;-74
2023/07/05 03:02:28;;;;;;;11.73;7.35;;;17.10;99.90;;;;;;5008568;28;20031;-74
2023/07/05 03:04:53;;;;;;;8.07;6.32;;;17.10;99.90;;;;;;4977823;28;20029;-74
2023/07/05 03:07:19;;;;;;;11.85;6.72;;;17.10;99.90;;;;;;4977884;28;20026;-74
2023/07/05 03:09:48;;;;;;;10.07;6.40;;;17.10;99.90;;;;;;4978536;28;20369;-74
2023/07/05 03:12:15;;;;;;;14.73;7.45;;;17.10;99.90;;;;;;4977951;28;20053;-74
2023/07/05 03:14:40;;;;;;;8.25;6.55;;;17.00;99.90;;;;;;4978557;28;20026;-74
2023/07/05 03:17:06;;;;;;;10.65;7.05;;;17.00;99.90;;;;;;4978225;28;20034;-74
2023/07/05 03:19:32;;;;;;;12.38;6.80;;;17.00;99.90;;;;;;4969422;28;20031;-73
2023/07/05 03:21:58;;;;;;;9.00;6.60;;;17.00;99.90;;;;;;4976700;28;20062;-74
2023/07/05 03:24:24;;;;;;;12.48;7.28;;;16.90;99.90;;;;;;4978488;28;20026;-74
2023/07/05 03:26:53;;;;;;;11.13;6.88;;;16.90;99.90;;;;;;4978054;28;20478;-74
2023/07/05 03:29:19;;;;;;;9.73;6.25;;;16.90;99.90;;;;;;5009649;28;20023;-74
2023/07/05 03:31:44;;;;;;;9.80;6.70;;;16.90;99.90;;;;;;4977910;28;20495;-73
2023/07/05 03:34:10;;;;;;;11.27;7.03;;;16.80;99.90;;;;;;4978104;28;20019;-73
2023/07/05 03:36:36;;;;;;;10.95;7.57;;;16.90;99.90;;;;;;4978001;28;20434;-73
2023/07/05 03:39:01;;;;;;;10.80;7.90;;;16.80;99.90;;;;;;4978263;28;20029;-74
2023/07/05 03:41:27;;;;;;;12.02;7.65;;;16.80;99.90;;;;;;5008810;28;20035;-73
2023/07/05 03:43:56;;;;;;;12.10;7.07;;;16.70;99.90;;;;;;4976590;28;20391;-74
2023/07/05 03:46:22;;;;;;;11.15;7.22;;;16.80;99.90;;;;;;4977844;28;20062;-73
2023/07/05 03:48:48;;;;;;;10.40;7.18;;;16.70;99.90;;;;;;4977859;28;20034;-73
2023/07/05 03:51:20;;;;;;;12.02;7.60;;;16.70;99.90;;;;;;4977836;28;20403;-73
2023/07/05 03:53:54;;;;;;;12.23;7.50;;;16.70;99.90;;;;;;4976472;28;20027;-73
2023/07/05 03:56:20;;;;;;;10.52;7.03;;;16.70;99.90;;;;;;4977926;28;20027;-73
2023/07/05 03:58:47;;;;;;;10.27;7.35;;;16.70;99.90;;;;;;4969312;28;20467;-73
2023/07/05 04:01:22;;;;;;;9.38;6.93;;;16.70;99.90;;;;;;4977940;28;20038;-73
2023/07/05 04:03:50;;;;;;;9.98;6.80;;;16.70;99.90;;;;;;4977862;28;20071;-74
2023/07/05 04:06:17;;;;;;;11.10;7.22;;;16.70;99.90;;;;;;4977920;28;20023;-74
2023/07/05 04:08:42;;;;;;;12.13;7.53;;;16.70;99.90;;;;;;4977733;28;20027;-74
2023/07/05 04:11:09;;;;;;;13.25;7.30;;;16.70;99.90;;;;;;4977792;28;20031;-74
2023/07/05 04:13:35;;;;;;;8.90;7.35;;;16.60;99.90;;;;;;4978326;28;20026;-73
2023/07/05 04:16:08;;;;;;;13.80;7.43;;;16.60;99.90;;;;;;4981714;28;20019;-73
2023/07/05 04:18:34;;;;;;;15.52;8.00;;;16.60;99.90;;;;;;4981356;28;20027;-73
2023/07/05 04:21:00;;;;;;;10.13;8.10;;;16.60;99.90;;;;;;4981284;28;20050;-73
2023/07/05 04:23:26;;;;;;;11.20;7.28;;;16.60;99.90;;;;;;4981376;28;20435;-74
2023/07/05 04:26:03;;;;;;;10.68;7.53;;;16.60;99.90;;;;;;4980065;28;20027;-73
2023/07/05 04:28:30;;;;;;;10.95;8.02;;;16.60;99.90;;;;;;4981455;28;20030;-73
2023/07/05 04:30:56;;;;;;;14.38;6.88;;;16.60;99.90;;;;;;4974706;28;20072;-73
2023/07/05 04:33:22;;;;;;;10.68;7.60;;;16.60;99.90;;;;;;4979636;28;20442;-74
2023/07/05 04:35:50;;;;;;;10.88;7.47;;;16.60;99.90;;;;;;4981505;28;20118;-73
2023/07/05 04:38:15;;;;;;;10.07;6.65;;;16.60;99.90;;;;;;4981274;28;20094;-73
2023/07/05 04:40:41;;;;;;;11.05;7.50;;;16.60;99.90;;;;;;4981282;28;20055;-74
2023/07/05 04:43:07;;;;;;;10.85;7.32;;;16.60;99.90;;;;;;4981038;28;20034;-74
2023/07/05 04:45:33;;;;;;;10.75;7.70;;;16.70;99.90;;;;;;4981300;28;20026;-73
2023/07/05 04:47:58;;;;;;;10.52;7.18;;;16.70;99.90;;;;;;4980836;28;20058;-73
2023/07/05 04:50:24;;;;;;;9.63;7.72;;;16.80;99.90;;;;;;4980836;28;20119;-72
2023/07/05 04:52:51;;;;;;;12.77;7.50;;;16.80;99.90;;;;;;4980940;28;20027;-74
2023/07/05 04:55:16;;;;;;;12.70;7.28;;;16.90;99.90;;;;;;4980943;28;20027;-74
2023/07/05 04:57:42;;;;;;;9.40;6.82;;;17.00;99.90;;;;;;4974977;28;20039;-74
2023/07/05 05:00:09;;;;;;;10.60;6.85;;;17.00;99.90;;;;;;4980554;28;20031;-74
2023/07/05 05:02:35;;;;;;;11.30;6.53;;;17.10;99.90;;;;;;4980674;28;20027;-73
2023/07/05 05:05:01;;;;;;;9.30;6.97;;;17.20;99.90;;;;;;4980709;28;20081;-74
2023/07/05 05:07:27;;;;;;;12.25;7.00;;;17.30;99.90;;;;;;5011888;28;20097;-73
2023/07/05 05:09:53;;;;;;;9.30;6.97;;;17.30;99.90;;;;;;4980209;28;20073;-74
2023/07/05 05:12:18;;;;;;;12.30;6.82;;;17.40;99.90;;;;;;4971606;28;20039;-74
2023/07/05 05:14:44;;;;;;;9.85;7.13;;;17.40;99.90;;;;;;5011943;28;20031;-73
2023/07/05 05:17:10;;;;;;;12.57;7.68;;;17.40;99.90;;;;;;4980417;28;20106;-73
2023/07/05 05:19:35;;;;;;;7.80;6.43;;;17.50;99.90;;;;;;4979148;28;20511;-73
2023/07/05 05:22:01;;;;;;;11.15;6.28;;;17.50;99.90;;;;;;4980233;28;20051;-73
2023/07/05 05:24:27;;;;;;;9.25;6.82;;;17.50;99.90;;;;;;4980276;28;20115;-73
2023/07/05 05:26:54;;;;;;;10.00;6.93;;;17.60;99.90;;;;;;4968970;28;20478;-73
2023/07/05 05:29:20;;;;;;;10.00;6.65;;;17.60;99.90;;;;;;4965589;28;20030;-73
2023/07/05 05:31:48;;;;;;;9.18;6.63;;;17.60;99.90;;;;;;4971265;28;20030;-73
2023/07/05 05:34:13;;;;;;;9.77;6.15;;;17.70;99.90;;;;;;4980179;28;20019;-73
2023/07/05 05:36:39;;;;;;;10.63;6.40;;;17.80;99.90;;;;;;4980103;28;20054;-74
2023/07/05 05:39:07;;;;;;;8.60;6.05;;;17.90;99.90;;;;;;4980290;28;20117;-73
2023/07/05 05:41:32;;;;;;;10.23;5.72;;;18.00;99.90;;;;;;4980076;28;20061;-73
2023/07/05 05:43:58;;;;;;;10.73;6.32;;;18.10;99.90;;;;;;4980178;28;20022;-74
2023/07/05 05:46:24;;;;;;;7.70;5.60;;;18.20;99.90;;;;;;4978692;28;20481;-74
2023/07/05 05:48:49;;;;;;;9.07;5.25;;;18.20;99.90;;;;;;4979813;28;20070;-73
2023/07/05 05:51:15;;;;;;;7.93;5.95;;;18.40;99.90;;;;;;4978577;28;20046;-73
2023/07/05 05:53:40;;;;;;;6.22;4.80;;;18.50;99.90;;;;;;4979667;28;20066;-73
2023/07/05 05:56:06;;;;;;;6.38;5.15;;;18.50;99.90;;;;;;4979951;28;20027;-73
2023/07/05 05:58:32;;;;;;;6.88;5.13;;;18.60;99.90;;;;;;4971402;28;20029;-73
2023/07/05 06:01:00;;;;;;;9.27;5.75;;;18.70;99.90;;;;;;4979823;28;20037;-74
2023/07/05 06:03:26;;;;;;;10.98;6.80;;;18.80;99.90;;;;;;4979450;28;20022;-73
2023/07/05 06:05:54;;;;;;;7.38;4.65;;;18.90;99.90;;;;;;4977591;28;20046;-73
2023/07/05 06:08:20;;;;;;;11.75;5.15;;;19.00;99.90;;;;;;4979457;28;20093;-73
2023/07/05 06:10:46;;;;;;;7.50;5.03;;;19.00;99.90;;;;;;4979557;28;20121;-73
2023/07/05 06:13:13;;;;;;;10.70;4.68;;;19.00;99.90;;;;;;4978070;28;20045;-73
2023/07/05 06:15:38;;;;;;;7.68;5.57;;;19.10;99.90;;;;;;4974681;28;20408;-73
2023/07/05 06:18:04;;;;;;;7.18;4.78;;;19.10;99.90;;;;;;4973176;28;20031;-73
2023/07/05 06:20:33;;;;;;;9.30;4.45;;;19.00;99.90;;;;;;4979132;28;20414;-73
2023/07/05 06:23:00;;;;;;;9.45;4.95;;;19.10;99.90;;;;;;4979238;28;20435;-73
2023/07/05 06:25:25;;;;;;;5.93;4.22;;;19.20;99.90;;;;;;5010204;28;20083;-74
2023/07/05 06:27:51;;;;;;;9.00;4.45;;;19.30;99.90;;;;;;4979027;28;20632;-73
2023/07/05 06:30:17;;;;;;;7.65;4.55;;;19.40;99.90;;;;;;4978948;28;20034;-73
2023/07/05 06:32:43;;;;;;;8.45;4.18;;;19.40;99.90;;;;;;4978800;28;20030;-73
2023/07/05 06:35:09;;;;;;;8.05;3.83;;;19.40;99.90;;;;;;4979489;28;20488;-73
2023/07/05 06:37:35;;;;;;;4.97;3.78;;;19.40;99.90;;;;;;4978746;28;20054;-73
2023/07/05 06:40:00;;;;;;;5.57;3.60;;;19.30;99.90;;;;;;4979240;28;20030;-73
2023/07/05 06:42:26;;;;;;;6.88;3.80;;;19.30;99.90;;;;;;4978928;28;20035;-73
2023/07/05 06:44:52;;;;;;;7.78;3.80;;;19.30;99.90;;;;;;4979020;28;20510;-73
2023/07/05 06:47:17;;;;;;;7.47;3.95;;;19.30;99.90;;;;;;4973423;28;20026;-73
2023/07/05 06:49:43;;;;;;;7.63;4.10;;;19.40;99.90;;;;;;4978706;28;20023;-72
2023/07/05 06:52:09;;;;;;;7.75;4.07;;;19.30;99.90;;;;;;4978730;28;20081;-72
2023/07/05 06:54:34;;;;;;;8.85;3.97;;;19.40;99.90;;;;;;4978932;28;20101;-73
2023/07/05 06:57:00;;;;;;;8.10;4.65;;;19.30;99.90;;;;;;4978265;28;21504;-73
2023/07/05 06:59:26;;;;;;;6.28;3.67;;;19.40;99.90;;;;;;5003292;28;20023;-73
2023/07/05 07:01:52;;;;;;;9.63;4.25;;;19.40;99.90;;;;;;4978579;28;20019;-73
2023/07/05 07:04:17;;;;;;;10.68;4.20;;;19.50;99.90;;;;;;4978470;28;20026;-73
2023/07/05 07:06:43;;;;;;;10.13;4.18;;;19.60;99.90;;;;;;4977336;28;20399;-73
2023/07/05 07:09:11;;;;;;;10.30;4.60;;;19.70;99.90;;;;;;4978772;28;20023;-73
2023/07/05 07:11:37;;;;;;;7.40;3.72;;;19.70;99.90;;;;;;4978053;28;20026;-73
2023/07/05 07:14:02;;;;;;;7.22;4.53;;;19.80;99.90;;;;;;4978565;28;20606;-72
2023/07/05 07:16:28;;;;;;;10.27;4.30;;;19.80;99.90;;;;;;4978330;28;20082;-73
2023/07/05 07:18:55;;;;;;;5.70;3.47;;;19.90;99.90;;;;;;4978233;28;20058;-73
2023/07/05 07:21:21;;;;;;;8.85;4.20;;;20.00;99.90;;;;;;4976779;28;20051;-73
2023/07/05 07:23:48;;;;;;;5.85;3.50;;;20.10;99.90;;;;;;4978269;28;20049;-73
2023/07/05 07:26:17;;;;;;;7.78;3.17;;;20.20;99.90;;;;;;4976704;28;20103;-73
2023/07/05 07:28:55;;;;;;;5.82;3.50;;;20.40;99.90;;;;;;4978371;28;20037;-73
2023/07/05 07:31:24;;;;;;;5.28;3.42;;;20.70;99.90;;;;;;4973723;28;20022;-73
2023/07/05 07:33:51;;;;;;;9.40;3.25;;;20.80;99.90;;;;;;4977749;28;20039;-73
2023/07/05 07:36:24;;;;;;;6.78;3.28;;;20.90;99.90;;;;;;4978037;28;20019;-73
2023/07/05 07:38:51;;;;;;;12.05;4.22;;;20.90;99.90;;;;;;4978252;28;20038;-73
2023/07/05 07:41:21;;;;;;;6.43;3.40;;;20.70;99.90;;;;;;4978069;28;20042;-73
2023/07/05 07:43:53;;;;;;;7.07;3.40;;;20.70;99.90;;;;;;4978136;28;20041;-72
2023/07/05 07:46:24;;;;;;;6.00;2.63;;;20.60;99.90;;;;;;4978102;28;20077;-73
2023/07/05 07:48:52;;;;;;;5.70;2.90;;;20.60;99.90;;;;;;4977265;28;20072;-73
2023/07/05 07:51:19;;;;;;;9.30;3.33;;;20.70;99.90;;;;;;5008943;28;20030;-73
2023/07/05 07:53:44;;;;;;;9.25;3.60;;;20.80;99.90;;;;;;4975655;28;20090;-72
2023/07/05 07:56:15;;;;;;;7.82;3.10;;;21.00;99.90;;;;;;5009039;28;20432;-73
2023/07/05 07:58:41;;;;;;;;;;;21.30;99.90;;;;;;4977580;28;20376;-73
2023/07/05 08:01:32;;;;;;;8.52;3.08;;;21.40;99.90;;;;;;4976508;28;20273;-73
2023/07/05 08:03:59;;;;;;;;;;;21.60;99.90;;;;;;5009211;28;20106;-74
2023/07/05 08:06:39;;;;;;;6.20;2.80;;;21.80;99.90;;;;;;4978007;28;20003;-73
2023/07/05 08:09:07;;;;;;;5.50;2.60;;;22.00;99.90;;;;;;4977762;28;20086;-73
2023/07/05 08:11:33;;;;;;;17.67;3.38;;;22.40;99.90;;;;;;4977159;28;20027;-73
2023/07/05 08:13:59;;;;;;;5.78;2.88;;;22.60;99.90;;;;;;4977724;28;20023;-73
2023/07/05 08:16:25;;;;;;;9.25;3.05;;;22.70;99.90;;;;;;4977898;28;20027;-73
2023/07/05 08:18:52;;;;;;;6.43;2.35;;;22.50;99.90;;;;;;5008691;28;20058;-73
2023/07/05 08:21:18;;;;;;;2.33;1.77;;;22.40;99.90;;;;;;4977756;28;20039;-73
2023/07/05 08:23:44;;;;;;;6.35;2.50;;;22.20;99.90;;;;;;4977517;28;20026;-73
2023/07/05 08:26:11;;;;;;;5.60;2.05;;;22.30;99.90;;;;;;4977825;28;20019;-74
2023/07/05 08:28:37;;;;;;;6.78;2.85;;;22.30;99.90;;;;;;4977615;28;20022;-73
2023/07/05 08:31:05;;;;;;;7.15;3.08;;;22.40;99.90;;;;;;4977467;28;20097;-73
2023/07/05 08:33:32;;;;;;;5.45;2.33;;;22.40;99.90;;;;;;4975975;28;20023;-73
2023/07/05 08:36:18;;;;;;;6.47;2.55;;;22.50;99.90;;;;;;4971279;28;20031;-73
2023/07/05 08:38:48;;;;;;;6.28;2.38;;;22.60;99.90;;;;;;4962287;28;20019;-73
2023/07/05 08:41:16;;;;;;;6.28;2.33;;;22.90;99.90;;;;;;4972855;28;20027;-74
2023/07/05 08:43:50;;;;;;;3.90;2.42;;;22.90;99.90;;;;;;4975467;28;20037;-74
2023/07/05 08:46:16;;;;;;;6.28;2.67;;;22.80;99.90;;;;;;4973702;28;20039;-73
2023/07/05 08:48:44;;;;;;;5.07;2.33;;;22.70;99.90;;;;;;4974849;28;21735;-73
2023/07/05 08:51:12;;;;;;;4.63;2.42;;;22.70;99.90;;;;;;4976056;28;20471;-73
2023/07/05 08:53:53;;;;;;;4.38;2.47;;;22.70;99.90;;;;;;4976385;28;20102;-73
2023/07/05 08:56:25;;;;;;;7.32;2.97;;;23.00;99.90;;;;;;4976253;28;20018;-74
2023/07/05 08:59:19;;;;;;;4.75;2.30;;;23.20;99.90;;;;;;4972762;28;20102;-74
2023/07/05 09:01:45;;;;;;;9.88;2.38;;;23.30;99.90;;;;;;4977530;28;20077;-74
2023/07/05 09:04:34;;;;;;;4.32;2.38;;;23.30;99.90;;;;;;4979474;28;20011;-74
2023/07/05 09:07:20;;;;;;;5.97;2.95;;;23.30;99.90;;;;;;4979734;28;20031;-73
2023/07/05 09:09:54;;;;;;;8.80;2.97;;;23.20;99.90;;;;;;4978623;28;20542;-74
2023/07/05 09:12:37;;;;;;;4.75;2.20;;;23.30;99.90;;;;;;4979170;28;20030;-73
2023/07/05 09:15:21;;;;;;;6.95;2.53;;;23.30;99.90;;;;;;4979045;28;20022;-74
2023/07/05 09:17:59;;;;;;;9.43;2.42;;;23.20;99.90;;;;;;4979425;28;20054;-74
2023/07/05 09:20:36;;;;;;;7.57;2.47;;;23.20;99.90;;;;;;4976974;28;20050;-73
2023/07/05 09:23:06;;;;;;;6.22;2.45;;;23.00;99.90;;;;;;4978091;28;20400;-73
2023/07/05 09:25:34;;;;;;;3.83;2.13;;;22.80;99.90;;;;;;4979403;28;20511;-73
2023/07/05 09:28:25;;;;;;;6.03;2.63;;;22.70;99.90;;;;;;4979257;28;20027;-73
2023/07/05 09:30:52;;;;;;;4.22;2.40;;;22.60;99.90;;;;;;4978156;28;20415;-74
2023/07/05 09:33:30;;;;;;;7.47;2.58;;;22.60;99.90;;;;;;4978749;28;20027;-73
2023/07/05 09:36:00;;;;;;;7.18;2.90;;;22.50;99.90;;;;;;4975826;28;20093;-73
2023/07/05 09:38:31;;;;;;;8.60;3.38;;;22.70;99.90;;;;;;4979006;28;20015;-73
2023/07/05 09:41:04;;;;;;;4.75;2.90;;;22.90;99.90;;;;;;4978382;28;20027;-74
2023/07/05 09:43:34;;;;;;;3.53;1.90;;;23.00;99.90;;;;;;4979432;28;20572;-73
2023/07/05 09:46:05;;;;;;;;;;;23.70;99.90;;;;;;5010679;28;20492;-73
2023/07/05 09:48:36;;;;;;;5.10;2.10;;;24.20;99.90;;;;;;4977005;28;19910;-73
2023/07/05 09:51:03;;;;;;;4.32;2.03;;;24.60;99.90;;;;;;4978762;28;20178;-73
2023/07/05 09:54:09;;;;;;;6.90;2.30;;;24.70;99.90;;;;;;4978862;28;20037;-73
2023/07/05 09:57:01;;;;;;;6.85;2.25;;;24.70;99.90;;;;;;4974562;28;20019;-73
2023/07/05 09:59:27;;;;;;;6.88;2.55;;;24.80;99.90;;;;;;4973692;28;20028;-73
2023/07/05 10:02:12;;;;;;;7.85;1.95;;;24.70;99.90;;;;;;4976201;28;20506;-73
2023/07/05 10:04:46;;;;;;;5.07;2.00;;;24.60;99.90;;;;;;4978445;28;20023;-74
2023/07/05 10:07:17;;;;;;;5.38;2.30;;;24.50;99.90;;;;;;4977308;28;20015;-73
2023/07/05 10:09:56;;;;;;;;;;;24.30;99.90;;;;;;4978742;28;20062;-73
2023/07/05 10:12:26;;;;;;;5.95;2.25;;;24.20;99.90;;;;;;4977956;28;19917;-73
2023/07/05 10:14:56;;;;;;;4.80;2.28;;;24.50;99.90;;;;;;4978484;28;20018;-73
2023/07/05 10:17:22;;;;;;;4.17;1.90;;;24.90;99.90;;;;;;4974858;28;20023;-73
2023/07/05 10:19:50;;;;;;;5.55;1.95;;;25.00;99.90;;;;;;4977639;28;20111;-73
2023/07/05 10:22:25;;;;;;;2.85;1.80;;;25.20;99.90;;;;;;4978411;28;20098;-73
2023/07/05 10:24:57;;;;;;;4.00;1.80;;;25.30;99.90;;;;;;4974537;28;20566;-73
2023/07/05 10:27:37;;;;;;;4.40;1.92;;;25.40;99.90;;;;;;4977718;28;20027;-73
2023/07/05 10:30:07;;;;;;;3.58;1.55;;;25.50;99.90;;;;;;4976259;28;20102;-74
2023/07/05 10:32:33;;;;;;;2.78;1.85;;;25.90;99.90;;;;;;4975806;28;20027;-74
2023/07/05 10:35:01;;;;;;;3.60;1.60;;;25.90;99.90;;;;;;4977911;28;20023;-75
2023/07/05 10:37:35;;;;;;;5.28;2.20;;;25.60;99.90;;;;;;4976275;28;20031;-74
2023/07/05 10:40:04;;;;;;;4.63;2.08;;;25.40;99.90;;;;;;4975718;28;20314;-73
2023/07/05 10:42:30;;;;;;;7.30;2.50;;;25.20;99.90;;;;;;4977979;28;20027;-73
2023/07/05 10:44:57;;;;;;;5.93;2.03;;;25.20;99.90;;;;;;4977980;28;20023;-73
2023/07/05 10:47:23;;;;;;;3.15;1.85;;;24.70;99.90;;;;;;4978170;28;20022;-73
2023/07/05 10:49:52;;;;;;;5.40;2.35;;;24.60;99.90;;;;;;4975311;28;20022;-74
2023/07/05 10:52:20;;;;;;;4.20;2.22;;;24.40;99.90;;;;;;4970962;28;20399;-74
2023/07/05 10:55:10;;;;;;;6.10;1.95;;;24.60;99.90;;;;;;4975890;28;20074;-74
2023/07/05 10:57:42;;;;;;;3.40;1.63;;;24.50;99.90;;;;;;4971515;28;20020;-73
2023/07/05 11:00:37;;;;;;;3.90;1.95;;;24.40;99.90;;;;;;4975671;28;20122;-73
2023/07/05 11:03:13;;;;;;;2.83;1.75;;;24.40;99.90;;;;;;4970615;28;20030;-73
2023/07/05 11:05:51;;;;;;;4.35;1.90;;;24.70;99.90;;;;;;4973728;28;20030;-74
2023/07/05 11:08:35;;;;;;;6.15;1.95;;;25.00;99.90;;;;;;4975068;28;20120;-73
2023/07/05 11:11:24;;;;;;;7.18;2.67;;;24.90;99.90;;;;;;4974104;28;20105;-73
2023/07/05 11:13:52;;;;;;;9.52;1.50;;;25.30;99.90;;;;;;4975627;28;20023;-73
2023/07/05 11:16:21;;;;;;;3.58;1.58;;;25.60;99.90;;;;;;4977207;28;20022;-73
2023/07/05 11:18:48;;;;;;;3.38;1.40;;;25.90;99.90;;;;;;4972151;28;20058;-73
2023/07/05 11:21:35;;;;;;;3.97;1.90;;;26.00;99.90;;;;;;4975735;28;20047;-73
2023/07/05 11:24:01;;;;;;;3.55;1.25;;;26.00;99.90;;;;;;4976598;28;20034;-74
2023/07/05 11:26:40;;;;;;;3.63;1.77;;;25.70;99.90;;;;;;4975571;28;20027;-73
2023/07/05 11:29:25;;;;;;;4.75;1.67;;;25.70;99.90;;;;;;4972449;28;20101;-73
2023/07/05 11:31:53;;;;;;;3.08;1.67;;;26.00;99.90;;;;;;4976128;28;20056;-73
2023/07/05 11:34:23;;;;;;;5.53;1.98;;;26.20;99.90;;;;;;4977026;28;20108;-74
2023/07/05 11:37:04;;;;;;;2.80;1.50;;;26.30;99.90;;;;;;4977007;28;20022;-73
2023/07/05 11:39:34;;;;;;;6.85;1.95;;;26.30;99.90;;;;;;4971121;28;20113;-73
2023/07/05 11:42:15;;;;;;;4.07;1.77;;;25.80;99.90;;;;;;4975446;28;20022;-73
2023/07/05 11:44:42;;;;;;;5.97;2.22;;;25.60;99.90;;;;;;4975346;28;20015;-74
2023/07/05 11:47:34;;;;;;;3.20;1.27;;;25.40;99.90;;;;;;4975766;28;20027;-74
2023/07/05 11:50:08;;;;;;;4.05;2.30;;;25.60;99.90;;;;;;4976071;28;20094;-75
2023/07/05 11:52:59;;;;;;;4.68;1.35;;;25.90;99.90;;;;;;4975299;28;20407;-75
2023/07/05 11:55:33;;;;;;;5.43;1.90;;;25.80;99.90;;;;;;4973252;28;20070;-74
2023/07/05 11:58:22;;;;;;;5.70;2.08;;;26.00;99.90;;;;;;4973070;28;20077;-74
2023/07/05 12:00:58;;;;;;;3.65;1.48;;;26.40;99.90;;;;;;4976685;28;20014;-74
2023/07/05 12:03:30;;;;;;;4.60;1.75;;;26.50;99.90;;;;;;4976658;28;20122;-74
2023/07/05 12:06:08;;;;;;;4.32;1.88;;;26.70;99.90;;;;;;4976940;28;20070;-74
2023/07/05 12:09:10;;;;;;;5.53;1.52;;;26.60;99.90;;;;;;4976379;28;20087;-73
2023/07/05 12:11:41;;;;;;;5.03;1.70;;;26.40;99.90;;;;;;4965631;28;20067;-73
2023/07/05 12:14:12;;;;;;;2.53;1.55;;;26.30;99.90;;;;;;4975121;28;20027;-74
2023/07/05 12:16:38;;;;;;;4.28;1.40;;;26.10;99.90;;;;;;4972767;28;20027;-73
2023/07/05 12:19:07;;;;;;;4.60;1.63;;;25.90;99.90;;;;;;4974768;28;20023;-73
2023/07/05 12:21:34;;;;;;;4.75;1.80;;;25.70;99.90;;;;;;4973225;28;20538;-74
2023/07/05 12:24:04;;;;;;;5.38;1.70;;;25.70;99.90;;;;;;4973979;28;20057;-74
2023/07/05 12:26:31;;;;;;;3.78;1.65;;;25.90;99.90;;;;;;4976474;28;20034;-72
2023/07/05 12:29:03;;;;;;;5.97;2.30;;;26.40;99.90;;;;;;4974320;28;20034;-74
2023/07/05 12:31:30;;;;;;;5.60;1.58;;;26.50;99.90;;;;;;5004799;28;20055;-73
2023/07/05 12:34:03;;;;;;;6.55;1.90;;;26.50;99.90;;;;;;4975564;28;20031;-74
2023/07/05 12:36:29;;;;;;;4.57;1.50;;;26.50;99.90;;;;;;4980357;28;20054;-73
2023/07/05 12:39:09;;;;;;;3.55;1.42;;;26.60;99.90;;;;;;4979735;28;20046;-73
2023/07/05 12:41:35;;;;;;;3.05;1.55;;;26.40;99.90;;;;;;4976427;28;20110;-73
2023/07/05 12:44:04;;;;;;;5.97;2.03;;;26.60;99.90;;;;;;4980118;28;20034;-73
2023/07/05 12:46:32;;;;;;;6.40;2.03;;;26.70;99.90;;;;;;4979419;28;20109;-73
2023/07/05 12:49:19;;;;;;;3.78;1.60;;;26.60;99.90;;;;;;4978979;28;20039;-74
2023/07/05 12:51:49;;;;;;;4.07;1.90;;;27.00;99.90;;;;;;4978724;28;20050;-74
2023/07/05 12:54:15;;;;;;;5.80;1.92;;;27.40;99.90;;;;;;4979921;28;20022;-73
2023/07/05 12:56:45;;;;;;;5.50;1.75;;;27.30;99.90;;;;;;4979742;28;20094;-74
2023/07/05 12:59:37;;;;;;;4.75;2.22;;;27.30;99.90;;;;;;4979028;28;20019;-74
2023/07/05 13:02:05;;;;;;;4.75;1.58;;;27.40;99.90;;;;;;4977067;28;20062;-74